首页
METAR-TAF:

METAR-TAF

机场 :

贝尔加莫, 意大利

纬度: 45-40N, 经度: 009-42E, 海拔: 238米

当前天气观测

该预报发布于39分钟前的08:20 UTC
风速3节,风向北转西北,在西之间变化
温度 4°C
湿度 81%
气压 1017 hPa
能见度10公里或以上
1500米以下无云,无积雨云

METAR: LIME 100820Z 33003KT 270V010 CAVOK 04/01 Q1017 NOSIG

时间: 09:59 (08:59 UTC)

预报

该预报发布于3小时和59分钟前的05:00 UTC
预报有效从10日的 06点(UTC)到 11日的 06点(UTC)
风速8节,风向东北
能见度10公里或以上
1500米以下无云,无积雨云

TAF: LIME 100500Z 1006/1106 05008KT CAVOK

超过4000个机场的气象观测和天气预报(METAR&TAF报告)。

可查询的气象台以黄色和红色小点在地图上表示。

将鼠标移到小点上方,可查看气象台名称。

然后点击查看天气观测和预报。

如需切换地图:点击带黑十字的绿色按钮放大地图;点击带横线的绿色按钮缩小地图;或者点击绿色箭头查看邻近地区的地图。


METAR-TAF: